Current Weather

Hayward Exec

Hayward, California (KHWD)

Report from: Wednesday, August 17, 2022 5:54 PM PDT
Current time: Wednesday, August 17, 2022 6:35 PM PDT

Nearby weather
Weather history
Weather forecast

Temperature23.3°C (73.9°F)
Dew point15.6°C (60.1°F)
Winds 11 kts (5.7 m/s, 12.7 mph) West-Northwest (290°)
Visibility10 mi. (16.1 km)
Clouds Sky clear
Altimeter29.87 in.Hg (1012 mB)
Relative humidity62 %
Density altitude1,268 ft. (386 m)
Sea-level pressure101.2 kPa (1012 mB, 29.89 in.Hg)
Remarks Automated weather observing station with precipitation discriminator
Flight conditions Visual Meteorological Conditions
Raw dataKHWD 180054Z 29011KT 10SM CLR 23/16 A2987 RMK AO2 SLP122 T02330156
An error has occurred. This application may no longer respond until reloaded. Reload 🗙